sensor_id;sensor_type;location;lat;lon;timestamp;P1;durP1;ratioP1;P2;durP2;ratioP2
51828;SDS011;37881;48.024;8.774;2023-04-25T00:01:44;8.00;;;3.40;;
51828;SDS011;37881;48.024;8.774;2023-04-25T00:04:31;6.97;;;3.70;;
51828;SDS011;37881;48.024;8.774;2023-04-25T00:07:20;7.73;;;3.90;;
51828;SDS011;37881;48.024;8.774;2023-04-25T00:10:07;8.27;;;4.10;;
51828;SDS011;37881;48.024;8.774;2023-04-25T00:12:55;18.00;;;9.35;;
51828;SDS011;37881;48.024;8.774;2023-04-25T00:15:42;11.15;;;5.57;;
51828;SDS011;37881;48.024;8.774;2023-04-25T00:18:29;11.82;;;5.97;;
51828;SDS011;37881;48.024;8.774;2023-04-25T00:21:16;9.00;;;4.33;;
51828;SDS011;37881;48.024;8.774;2023-04-25T00:24:04;6.82;;;3.88;;
51828;SDS011;37881;48.024;8.774;2023-04-25T00:26:51;9.48;;;4.43;;
51828;SDS011;37881;48.024;8.774;2023-04-25T00:29:41;16.88;;;7.57;;
51828;SDS011;37881;48.024;8.774;2023-04-25T00:32:28;14.80;;;7.22;;
51828;SDS011;37881;48.024;8.774;2023-04-25T00:35:15;12.53;;;5.57;;
51828;SDS011;37881;48.024;8.774;2023-04-25T00:38:02;9.18;;;4.18;;
51828;SDS011;37881;48.024;8.774;2023-04-25T00:40:49;7.82;;;4.53;;
51828;SDS011;37881;48.024;8.774;2023-04-25T00:43:36;10.07;;;4.88;;
51828;SDS011;37881;48.024;8.774;2023-04-25T00:46:23;8.18;;;4.63;;
51828;SDS011;37881;48.024;8.774;2023-04-25T00:49:10;8.50;;;4.37;;
51828;SDS011;37881;48.024;8.774;2023-04-25T00:52:02;7.28;;;4.10;;
51828;SDS011;37881;48.024;8.774;2023-04-25T00:54:48;7.60;;;3.90;;
51828;SDS011;37881;48.024;8.774;2023-04-25T00:57:36;6.50;;;3.50;;
51828;SDS011;37881;48.024;8.774;2023-04-25T01:00:23;8.23;;;4.28;;
51828;SDS011;37881;48.024;8.774;2023-04-25T01:03:10;6.70;;;3.47;;
51828;SDS011;37881;48.024;8.774;2023-04-25T01:05:57;7.60;;;4.10;;
51828;SDS011;37881;48.024;8.774;2023-04-25T01:08:44;7.47;;;3.92;;
51828;SDS011;37881;48.024;8.774;2023-04-25T01:11:31;8.25;;;3.90;;
51828;SDS011;37881;48.024;8.774;2023-04-25T01:14:18;7.97;;;4.10;;
51828;SDS011;37881;48.024;8.774;2023-04-25T01:17:05;7.83;;;3.23;;
51828;SDS011;37881;48.024;8.774;2023-04-25T01:19:54;6.95;;;3.58;;
51828;SDS011;37881;48.024;8.774;2023-04-25T01:22:42;8.80;;;4.82;;
51828;SDS011;37881;48.024;8.774;2023-04-25T01:25:32;9.55;;;3.95;;
51828;SDS011;37881;48.024;8.774;2023-04-25T01:28:20;6.43;;;3.05;;
51828;SDS011;37881;48.024;8.774;2023-04-25T01:31:07;7.10;;;3.20;;
51828;SDS011;37881;48.024;8.774;2023-04-25T01:33:54;5.82;;;3.00;;
51828;SDS011;37881;48.024;8.774;2023-04-25T01:36:41;5.30;;;3.25;;
51828;SDS011;37881;48.024;8.774;2023-04-25T01:39:28;4.63;;;2.75;;
51828;SDS011;37881;48.024;8.774;2023-04-25T01:42:16;6.57;;;2.83;;
51828;SDS011;37881;48.024;8.774;2023-04-25T01:45:03;5.67;;;2.60;;
51828;SDS011;37881;48.024;8.774;2023-04-25T01:47:50;5.38;;;2.90;;
51828;SDS011;37881;48.024;8.774;2023-04-25T01:50:38;5.10;;;2.85;;
51828;SDS011;37881;48.024;8.774;2023-04-25T01:53:25;4.30;;;2.30;;
51828;SDS011;37881;48.024;8.774;2023-04-25T01:56:12;6.10;;;2.45;;
51828;SDS011;37881;48.024;8.774;2023-04-25T01:58:59;5.40;;;2.87;;
51828;SDS011;37881;48.024;8.774;2023-04-25T02:01:46;4.75;;;2.58;;
51828;SDS011;37881;48.024;8.774;2023-04-25T02:04:33;5.93;;;3.08;;
51828;SDS011;37881;48.024;8.774;2023-04-25T02:07:20;6.75;;;3.60;;
51828;SDS011;37881;48.024;8.774;2023-04-25T02:10:07;6.35;;;3.22;;
51828;SDS011;37881;48.024;8.774;2023-04-25T02:12:54;7.07;;;2.90;;
51828;SDS011;37881;48.024;8.774;2023-04-25T02:15:41;6.65;;;3.00;;
51828;SDS011;37881;48.024;8.774;2023-04-25T02:18:28;7.00;;;3.20;;
51828;SDS011;37881;48.024;8.774;2023-04-25T02:21:15;7.38;;;3.50;;
51828;SDS011;37881;48.024;8.774;2023-04-25T02:24:02;6.90;;;3.60;;
51828;SDS011;37881;48.024;8.774;2023-04-25T02:26:49;5.40;;;3.10;;
51828;SDS011;37881;48.024;8.774;2023-04-25T02:29:36;5.97;;;3.42;;
51828;SDS011;37881;48.024;8.774;2023-04-25T02:32:23;5.90;;;3.38;;
51828;SDS011;37881;48.024;8.774;2023-04-25T02:35:10;7.50;;;3.20;;
51828;SDS011;37881;48.024;8.774;2023-04-25T02:37:57;6.43;;;3.67;;
51828;SDS011;37881;48.024;8.774;2023-04-25T02:40:44;7.33;;;3.40;;
51828;SDS011;37881;48.024;8.774;2023-04-25T02:43:31;6.22;;;3.10;;
51828;SDS011;37881;48.024;8.774;2023-04-25T02:46:18;6.30;;;3.58;;
51828;SDS011;37881;48.024;8.774;2023-04-25T02:49:23;6.15;;;3.30;;
51828;SDS011;37881;48.024;8.774;2023-04-25T02:52:10;7.20;;;3.33;;
51828;SDS011;37881;48.024;8.774;2023-04-25T02:54:57;6.90;;;3.30;;
51828;SDS011;37881;48.024;8.774;2023-04-25T02:57:44;7.80;;;3.42;;
51828;SDS011;37881;48.024;8.774;2023-04-25T03:00:31;7.45;;;3.47;;
51828;SDS011;37881;48.024;8.774;2023-04-25T03:03:18;5.97;;;3.55;;
51828;SDS011;37881;48.024;8.774;2023-04-25T03:06:08;8.40;;;3.70;;
51828;SDS011;37881;48.024;8.774;2023-04-25T03:08:55;7.10;;;3.43;;
51828;SDS011;37881;48.024;8.774;2023-04-25T03:11:42;7.07;;;3.58;;
51828;SDS011;37881;48.024;8.774;2023-04-25T03:14:30;6.60;;;3.97;;
51828;SDS011;37881;48.024;8.774;2023-04-25T03:17:16;6.55;;;3.80;;
51828;SDS011;37881;48.024;8.774;2023-04-25T03:20:03;9.00;;;4.18;;
51828;SDS011;37881;48.024;8.774;2023-04-25T03:22:51;7.63;;;3.70;;
51828;SDS011;37881;48.024;8.774;2023-04-25T03:25:38;8.15;;;4.03;;
51828;SDS011;37881;48.024;8.774;2023-04-25T03:28:25;7.20;;;4.00;;
51828;SDS011;37881;48.024;8.774;2023-04-25T03:31:12;8.88;;;4.10;;
51828;SDS011;37881;48.024;8.774;2023-04-25T03:33:58;6.75;;;4.00;;
51828;SDS011;37881;48.024;8.774;2023-04-25T03:36:45;9.57;;;4.03;;
51828;SDS011;37881;48.024;8.774;2023-04-25T03:39:32;7.15;;;4.00;;
51828;SDS011;37881;48.024;8.774;2023-04-25T03:42:19;7.93;;;4.10;;
51828;SDS011;37881;48.024;8.774;2023-04-25T03:45:06;7.25;;;3.67;;
51828;SDS011;37881;48.024;8.774;2023-04-25T03:47:54;10.57;;;5.05;;
51828;SDS011;37881;48.024;8.774;2023-04-25T03:50:40;14.50;;;6.97;;
51828;SDS011;37881;48.024;8.774;2023-04-25T03:53:27;9.02;;;4.75;;
51828;SDS011;37881;48.024;8.774;2023-04-25T03:56:14;6.85;;;4.25;;
51828;SDS011;37881;48.024;8.774;2023-04-25T03:59:01;10.75;;;4.72;;
51828;SDS011;37881;48.024;8.774;2023-04-25T04:01:48;12.18;;;5.30;;
51828;SDS011;37881;48.024;8.774;2023-04-25T04:04:35;7.87;;;4.50;;
51828;SDS011;37881;48.024;8.774;2023-04-25T04:07:22;8.60;;;4.55;;
51828;SDS011;37881;48.024;8.774;2023-04-25T04:10:09;9.00;;;4.60;;
51828;SDS011;37881;48.024;8.774;2023-04-25T04:12:57;11.00;;;4.70;;
51828;SDS011;37881;48.024;8.774;2023-04-25T04:15:43;8.32;;;5.03;;
51828;SDS011;37881;48.024;8.774;2023-04-25T04:18:30;10.90;;;4.83;;
51828;SDS011;37881;48.024;8.774;2023-04-25T04:21:17;12.13;;;6.10;;
51828;SDS011;37881;48.024;8.774;2023-04-25T04:24:04;10.00;;;5.28;;
51828;SDS011;37881;48.024;8.774;2023-04-25T04:26:51;10.75;;;5.00;;
51828;SDS011;37881;48.024;8.774;2023-04-25T04:29:39;9.20;;;5.18;;
51828;SDS011;37881;48.024;8.774;2023-04-25T04:32:26;8.10;;;4.23;;
51828;SDS011;37881;48.024;8.774;2023-04-25T04:35:14;10.73;;;4.82;;
51828;SDS011;37881;48.024;8.774;2023-04-25T04:38:00;8.95;;;4.70;;
51828;SDS011;37881;48.024;8.774;2023-04-25T04:40:47;12.93;;;5.78;;
51828;SDS011;37881;48.024;8.774;2023-04-25T04:43:34;12.20;;;6.70;;
51828;SDS011;37881;48.024;8.774;2023-04-25T04:46:21;10.33;;;5.50;;
51828;SDS011;37881;48.024;8.774;2023-04-25T04:49:09;10.15;;;5.18;;
51828;SDS011;37881;48.024;8.774;2023-04-25T04:51:56;19.85;;;10.13;;
51828;SDS011;37881;48.024;8.774;2023-04-25T04:54:45;13.00;;;6.18;;
51828;SDS011;37881;48.024;8.774;2023-04-25T04:57:32;14.95;;;7.00;;
51828;SDS011;37881;48.024;8.774;2023-04-25T05:00:19;13.73;;;7.07;;
51828;SDS011;37881;48.024;8.774;2023-04-25T05:03:07;10.98;;;5.93;;
51828;SDS011;37881;48.024;8.774;2023-04-25T05:05:54;13.77;;;6.72;;
51828;SDS011;37881;48.024;8.774;2023-04-25T05:08:41;17.83;;;8.18;;
51828;SDS011;37881;48.024;8.774;2023-04-25T05:11:28;14.18;;;6.97;;
51828;SDS011;37881;48.024;8.774;2023-04-25T05:14:15;16.20;;;7.83;;
51828;SDS011;37881;48.024;8.774;2023-04-25T05:17:03;15.57;;;7.18;;
51828;SDS011;37881;48.024;8.774;2023-04-25T05:19:53;13.43;;;7.03;;
51828;SDS011;37881;48.024;8.774;2023-04-25T05:22:39;17.08;;;7.97;;
51828;SDS011;37881;48.024;8.774;2023-04-25T05:25:28;25.08;;;10.52;;
51828;SDS011;37881;48.024;8.774;2023-04-25T05:28:15;47.13;;;19.70;;
51828;SDS011;37881;48.024;8.774;2023-04-25T05:31:02;40.78;;;18.33;;
51828;SDS011;37881;48.024;8.774;2023-04-25T05:33:49;32.95;;;14.65;;
51828;SDS011;37881;48.024;8.774;2023-04-25T05:36:36;23.80;;;12.25;;
51828;SDS011;37881;48.024;8.774;2023-04-25T05:39:23;18.85;;;10.02;;
51828;SDS011;37881;48.024;8.774;2023-04-25T05:42:10;12.00;;;6.80;;
51828;SDS011;37881;48.024;8.774;2023-04-25T05:44:57;9.82;;;5.32;;
51828;SDS011;37881;48.024;8.774;2023-04-25T05:47:43;9.60;;;5.28;;
51828;SDS011;37881;48.024;8.774;2023-04-25T05:50:30;7.38;;;4.57;;
51828;SDS011;37881;48.024;8.774;2023-04-25T05:53:18;9.55;;;5.30;;
51828;SDS011;37881;48.024;8.774;2023-04-25T05:56:05;9.47;;;5.00;;
51828;SDS011;37881;48.024;8.774;2023-04-25T05:58:52;9.63;;;4.38;;
51828;SDS011;37881;48.024;8.774;2023-04-25T06:01:39;8.57;;;5.07;;
51828;SDS011;37881;48.024;8.774;2023-04-25T06:04:26;8.25;;;4.80;;
51828;SDS011;37881;48.024;8.774;2023-04-25T06:07:14;10.38;;;4.60;;
51828;SDS011;37881;48.024;8.774;2023-04-25T06:10:00;9.23;;;4.73;;
51828;SDS011;37881;48.024;8.774;2023-04-25T06:12:48;8.13;;;4.72;;
51828;SDS011;37881;48.024;8.774;2023-04-25T06:15:44;10.98;;;5.60;;
51828;SDS011;37881;48.024;8.774;2023-04-25T06:18:31;9.80;;;5.15;;
51828;SDS011;37881;48.024;8.774;2023-04-25T06:21:17;8.63;;;5.00;;
51828;SDS011;37881;48.024;8.774;2023-04-25T06:24:05;8.73;;;5.47;;
51828;SDS011;37881;48.024;8.774;2023-04-25T06:26:51;8.40;;;5.70;;
51828;SDS011;37881;48.024;8.774;2023-04-25T06:29:39;10.45;;;6.10;;
51828;SDS011;37881;48.024;8.774;2023-04-25T06:32:26;9.07;;;5.60;;
51828;SDS011;37881;48.024;8.774;2023-04-25T06:35:14;8.77;;;5.60;;
51828;SDS011;37881;48.024;8.774;2023-04-25T06:38:01;10.80;;;5.50;;
51828;SDS011;37881;48.024;8.774;2023-04-25T06:40:48;9.68;;;6.13;;
51828;SDS011;37881;48.024;8.774;2023-04-25T06:43:35;10.90;;;5.55;;
51828;SDS011;37881;48.024;8.774;2023-04-25T06:46:22;13.10;;;5.88;;
51828;SDS011;37881;48.024;8.774;2023-04-25T06:49:09;11.85;;;6.18;;
51828;SDS011;37881;48.024;8.774;2023-04-25T06:51:56;8.63;;;4.80;;
51828;SDS011;37881;48.024;8.774;2023-04-25T06:54:43;9.68;;;5.65;;
51828;SDS011;37881;48.024;8.774;2023-04-25T06:57:31;13.10;;;7.05;;
51828;SDS011;37881;48.024;8.774;2023-04-25T07:00:18;11.45;;;6.50;;
51828;SDS011;37881;48.024;8.774;2023-04-25T07:03:05;15.73;;;8.23;;
51828;SDS011;37881;48.024;8.774;2023-04-25T07:05:52;15.43;;;6.90;;
51828;SDS011;37881;48.024;8.774;2023-04-25T07:08:39;15.20;;;6.35;;
51828;SDS011;37881;48.024;8.774;2023-04-25T07:11:25;12.93;;;6.57;;
51828;SDS011;37881;48.024;8.774;2023-04-25T07:14:12;11.23;;;6.05;;
51828;SDS011;37881;48.024;8.774;2023-04-25T07:16:59;9.73;;;4.82;;
51828;SDS011;37881;48.024;8.774;2023-04-25T07:19:46;9.47;;;5.10;;
51828;SDS011;37881;48.024;8.774;2023-04-25T07:22:33;14.32;;;7.32;;
51828;SDS011;37881;48.024;8.774;2023-04-25T07:25:20;14.93;;;8.63;;
51828;SDS011;37881;48.024;8.774;2023-04-25T07:28:07;8.73;;;4.90;;
51828;SDS011;37881;48.024;8.774;2023-04-25T07:30:54;9.30;;;4.80;;
51828;SDS011;37881;48.024;8.774;2023-04-25T07:33:41;10.83;;;5.30;;
51828;SDS011;37881;48.024;8.774;2023-04-25T07:36:27;10.05;;;5.15;;
51828;SDS011;37881;48.024;8.774;2023-04-25T07:39:14;6.25;;;3.58;;
51828;SDS011;37881;48.024;8.774;2023-04-25T07:42:01;6.55;;;2.70;;
51828;SDS011;37881;48.024;8.774;2023-04-25T07:44:48;5.20;;;3.15;;
51828;SDS011;37881;48.024;8.774;2023-04-25T07:47:35;3.93;;;2.33;;
51828;SDS011;37881;48.024;8.774;2023-04-25T07:50:22;5.57;;;2.65;;
51828;SDS011;37881;48.024;8.774;2023-04-25T07:53:10;5.53;;;2.83;;
51828;SDS011;37881;48.024;8.774;2023-04-25T07:55:56;5.18;;;2.70;;
51828;SDS011;37881;48.024;8.774;2023-04-25T07:58:43;3.78;;;2.05;;
51828;SDS011;37881;48.024;8.774;2023-04-25T08:01:30;3.47;;;1.57;;
51828;SDS011;37881;48.024;8.774;2023-04-25T08:04:17;3.58;;;1.90;;
51828;SDS011;37881;48.024;8.774;2023-04-25T08:07:04;4.53;;;2.00;;
51828;SDS011;37881;48.024;8.774;2023-04-25T08:09:52;3.00;;;1.90;;
51828;SDS011;37881;48.024;8.774;2023-04-25T08:12:40;4.93;;;2.55;;
51828;SDS011;37881;48.024;8.774;2023-04-25T08:15:27;2.80;;;1.20;;
51828;SDS011;37881;48.024;8.774;2023-04-25T08:18:14;2.55;;;1.15;;
51828;SDS011;37881;48.024;8.774;2023-04-25T08:21:03;2.72;;;1.38;;
51828;SDS011;37881;48.024;8.774;2023-04-25T08:23:50;2.88;;;1.23;;
51828;SDS011;37881;48.024;8.774;2023-04-25T08:26:37;3.40;;;2.40;;
51828;SDS011;37881;48.024;8.774;2023-04-25T08:29:25;3.57;;;2.50;;
51828;SDS011;37881;48.024;8.774;2023-04-25T08:32:12;3.15;;;1.50;;
51828;SDS011;37881;48.024;8.774;2023-04-25T08:34:59;2.55;;;1.42;;
51828;SDS011;37881;48.024;8.774;2023-04-25T08:37:46;2.80;;;1.30;;
51828;SDS011;37881;48.024;8.774;2023-04-25T08:40:34;3.20;;;1.60;;
51828;SDS011;37881;48.024;8.774;2023-04-25T08:43:25;3.13;;;1.50;;
51828;SDS011;37881;48.024;8.774;2023-04-25T08:46:12;9.98;;;4.90;;
51828;SDS011;37881;48.024;8.774;2023-04-25T08:49:01;5.07;;;2.80;;
51828;SDS011;37881;48.024;8.774;2023-04-25T08:51:48;5.22;;;2.72;;
51828;SDS011;37881;48.024;8.774;2023-04-25T08:54:37;4.82;;;2.10;;
51828;SDS011;37881;48.024;8.774;2023-04-25T08:57:30;3.30;;;1.77;;
51828;SDS011;37881;48.024;8.774;2023-04-25T09:00:17;3.28;;;1.45;;
51828;SDS011;37881;48.024;8.774;2023-04-25T09:03:05;4.35;;;1.90;;
51828;SDS011;37881;48.024;8.774;2023-04-25T09:05:52;3.45;;;1.42;;
51828;SDS011;37881;48.024;8.774;2023-04-25T09:08:41;2.30;;;1.40;;
51828;SDS011;37881;48.024;8.774;2023-04-25T09:11:28;2.63;;;1.20;;
51828;SDS011;37881;48.024;8.774;2023-04-25T09:14:16;2.15;;;1.27;;
51828;SDS011;37881;48.024;8.774;2023-04-25T09:17:11;2.60;;;1.60;;
51828;SDS011;37881;48.024;8.774;2023-04-25T09:20:05;2.70;;;1.55;;
51828;SDS011;37881;48.024;8.774;2023-04-25T09:23:05;2.50;;;1.70;;
51828;SDS011;37881;48.024;8.774;2023-04-25T09:25:53;3.73;;;2.00;;
51828;SDS011;37881;48.024;8.774;2023-04-25T09:28:40;3.25;;;1.80;;
51828;SDS011;37881;48.024;8.774;2023-04-25T09:31:29;4.65;;;2.70;;
51828;SDS011;37881;48.024;8.774;2023-04-25T09:34:19;3.42;;;1.58;;
51828;SDS011;37881;48.024;8.774;2023-04-25T09:37:07;6.43;;;2.75;;
51828;SDS011;37881;48.024;8.774;2023-04-25T09:39:56;2.83;;;1.53;;
51828;SDS011;37881;48.024;8.774;2023-04-25T09:42:45;3.67;;;2.00;;
51828;SDS011;37881;48.024;8.774;2023-04-25T09:45:32;2.63;;;1.60;;
51828;SDS011;37881;48.024;8.774;2023-04-25T09:48:28;4.15;;;2.13;;
51828;SDS011;37881;48.024;8.774;2023-04-25T09:51:16;3.92;;;2.45;;
51828;SDS011;37881;48.024;8.774;2023-04-25T09:54:03;3.20;;;1.87;;
51828;SDS011;37881;48.024;8.774;2023-04-25T09:56:53;3.65;;;1.88;;
51828;SDS011;37881;48.024;8.774;2023-04-25T09:59:47;2.92;;;1.50;;
51828;SDS011;37881;48.024;8.774;2023-04-25T10:02:39;3.22;;;1.55;;
51828;SDS011;37881;48.024;8.774;2023-04-25T10:05:34;3.72;;;1.45;;
51828;SDS011;37881;48.024;8.774;2023-04-25T10:08:22;2.57;;;1.63;;
51828;SDS011;37881;48.024;8.774;2023-04-25T10:11:10;2.88;;;1.67;;
51828;SDS011;37881;48.024;8.774;2023-04-25T10:13:57;2.50;;;1.30;;
51828;SDS011;37881;48.024;8.774;2023-04-25T10:16:44;2.63;;;1.40;;
51828;SDS011;37881;48.024;8.774;2023-04-25T10:19:31;2.20;;;1.30;;
51828;SDS011;37881;48.024;8.774;2023-04-25T10:25:17;3.17;;;1.80;;
51828;SDS011;37881;48.024;8.774;2023-04-25T10:28:04;3.50;;;1.95;;
51828;SDS011;37881;48.024;8.774;2023-04-25T10:34:04;2.95;;;1.80;;
51828;SDS011;37881;48.024;8.774;2023-04-25T10:36:52;3.00;;;1.70;;
51828;SDS011;37881;48.024;8.774;2023-04-25T10:39:40;3.40;;;1.83;;
51828;SDS011;37881;48.024;8.774;2023-04-25T10:42:28;3.92;;;2.67;;
51828;SDS011;37881;48.024;8.774;2023-04-25T10:45:15;2.50;;;1.40;;
51828;SDS011;37881;48.024;8.774;2023-04-25T10:48:02;2.75;;;1.63;;
51828;SDS011;37881;48.024;8.774;2023-04-25T10:50:49;3.10;;;1.90;;
51828;SDS011;37881;48.024;8.774;2023-04-25T10:53:36;2.45;;;1.40;;
51828;SDS011;37881;48.024;8.774;2023-04-25T10:56:27;2.88;;;1.20;;
51828;SDS011;37881;48.024;8.774;2023-04-25T10:59:15;2.28;;;1.20;;
51828;SDS011;37881;48.024;8.774;2023-04-25T11:02:11;2.63;;;1.40;;
51828;SDS011;37881;48.024;8.774;2023-04-25T11:05:00;3.00;;;1.50;;
51828;SDS011;37881;48.024;8.774;2023-04-25T11:07:51;2.47;;;1.23;;
51828;SDS011;37881;48.024;8.774;2023-04-25T11:10:52;2.50;;;1.15;;
51828;SDS011;37881;48.024;8.774;2023-04-25T11:13:39;2.90;;;1.48;;
51828;SDS011;37881;48.024;8.774;2023-04-25T11:16:26;1.80;;;0.90;;
51828;SDS011;37881;48.024;8.774;2023-04-25T11:19:14;3.10;;;1.07;;
51828;SDS011;37881;48.024;8.774;2023-04-25T11:22:01;1.90;;;1.00;;
51828;SDS011;37881;48.024;8.774;2023-04-25T11:24:50;2.17;;;1.10;;
51828;SDS011;37881;48.024;8.774;2023-04-25T11:27:50;1.70;;;0.73;;
51828;SDS011;37881;48.024;8.774;2023-04-25T11:30:47;1.80;;;0.70;;
51828;SDS011;37881;48.024;8.774;2023-04-25T11:33:36;2.07;;;0.90;;
51828;SDS011;37881;48.024;8.774;2023-04-25T11:36:23;3.72;;;1.10;;
51828;SDS011;37881;48.024;8.774;2023-04-25T11:39:11;2.17;;;0.80;;
51828;SDS011;37881;48.024;8.774;2023-04-25T11:41:58;2.80;;;0.70;;
51828;SDS011;37881;48.024;8.774;2023-04-25T11:44:52;2.78;;;0.80;;
51828;SDS011;37881;48.024;8.774;2023-04-25T11:47:41;2.10;;;0.50;;
51828;SDS011;37881;48.024;8.774;2023-04-25T11:50:28;1.60;;;0.70;;
51828;SDS011;37881;48.024;8.774;2023-04-25T11:53:17;2.58;;;1.13;;
51828;SDS011;37881;48.024;8.774;2023-04-25T11:56:08;2.60;;;0.88;;
51828;SDS011;37881;48.024;8.774;2023-04-25T11:58:57;2.15;;;1.10;;
51828;SDS011;37881;48.024;8.774;2023-04-25T12:01:49;2.43;;;0.90;;
51828;SDS011;37881;48.024;8.774;2023-04-25T12:04:46;4.63;;;0.98;;
51828;SDS011;37881;48.024;8.774;2023-04-25T12:07:33;1.70;;;0.60;;
51828;SDS011;37881;48.024;8.774;2023-04-25T12:10:20;2.08;;;1.10;;
51828;SDS011;37881;48.024;8.774;2023-04-25T12:13:23;2.45;;;1.10;;
51828;SDS011;37881;48.024;8.774;2023-04-25T12:16:12;2.53;;;1.00;;
51828;SDS011;37881;48.024;8.774;2023-04-25T12:18:59;4.68;;;1.02;;
51828;SDS011;37881;48.024;8.774;2023-04-25T12:21:46;2.05;;;0.90;;
51828;SDS011;37881;48.024;8.774;2023-04-25T12:24:37;1.77;;;0.88;;
51828;SDS011;37881;48.024;8.774;2023-04-25T12:27:25;7.18;;;1.20;;
51828;SDS011;37881;48.024;8.774;2023-04-25T12:30:15;2.23;;;1.37;;
51828;SDS011;37881;48.024;8.774;2023-04-25T12:33:02;2.85;;;1.70;;
51828;SDS011;37881;48.024;8.774;2023-04-25T12:35:49;3.45;;;1.95;;
51828;SDS011;37881;48.024;8.774;2023-04-25T12:38:37;2.70;;;1.90;;
51828;SDS011;37881;48.024;8.774;2023-04-25T12:41:25;2.72;;;1.70;;
51828;SDS011;37881;48.024;8.774;2023-04-25T12:44:12;3.10;;;1.90;;
51828;SDS011;37881;48.024;8.774;2023-04-25T12:46:59;3.50;;;2.15;;
51828;SDS011;37881;48.024;8.774;2023-04-25T12:49:46;4.63;;;2.90;;
51828;SDS011;37881;48.024;8.774;2023-04-25T12:52:33;5.50;;;3.30;;
51828;SDS011;37881;48.024;8.774;2023-04-25T12:55:20;3.17;;;1.90;;
51828;SDS011;37881;48.024;8.774;2023-04-25T12:58:07;7.60;;;2.73;;
51828;SDS011;37881;48.024;8.774;2023-04-25T13:00:54;3.22;;;2.00;;
51828;SDS011;37881;48.024;8.774;2023-04-25T13:03:41;3.40;;;1.88;;
51828;SDS011;37881;48.024;8.774;2023-04-25T13:06:28;4.05;;;2.50;;
51828;SDS011;37881;48.024;8.774;2023-04-25T13:09:17;3.50;;;2.15;;
51828;SDS011;37881;48.024;8.774;2023-04-25T13:12:04;5.63;;;2.13;;
51828;SDS011;37881;48.024;8.774;2023-04-25T13:14:51;4.10;;;2.53;;
51828;SDS011;37881;48.024;8.774;2023-04-25T13:17:38;3.88;;;2.17;;
51828;SDS011;37881;48.024;8.774;2023-04-25T13:20:25;3.50;;;2.00;;
51828;SDS011;37881;48.024;8.774;2023-04-25T13:23:12;3.60;;;2.30;;
51828;SDS011;37881;48.024;8.774;2023-04-25T13:25:59;4.63;;;2.57;;
51828;SDS011;37881;48.024;8.774;2023-04-25T13:28:47;4.10;;;2.58;;
51828;SDS011;37881;48.024;8.774;2023-04-25T13:31:34;4.13;;;2.45;;
51828;SDS011;37881;48.024;8.774;2023-04-25T13:34:21;3.97;;;2.38;;
51828;SDS011;37881;48.024;8.774;2023-04-25T13:37:08;4.00;;;2.40;;
51828;SDS011;37881;48.024;8.774;2023-04-25T13:39:55;4.13;;;2.50;;
51828;SDS011;37881;48.024;8.774;2023-04-25T13:42:42;4.43;;;2.20;;
51828;SDS011;37881;48.024;8.774;2023-04-25T13:45:31;4.38;;;2.33;;
51828;SDS011;37881;48.024;8.774;2023-04-25T13:48:19;4.78;;;2.30;;
51828;SDS011;37881;48.024;8.774;2023-04-25T13:51:06;4.13;;;2.50;;
51828;SDS011;37881;48.024;8.774;2023-04-25T13:53:53;5.17;;;2.80;;
51828;SDS011;37881;48.024;8.774;2023-04-25T13:56:41;4.20;;;2.38;;
51828;SDS011;37881;48.024;8.774;2023-04-25T13:59:29;4.18;;;2.65;;
51828;SDS011;37881;48.024;8.774;2023-04-25T14:02:15;5.05;;;2.80;;
51828;SDS011;37881;48.024;8.774;2023-04-25T14:05:03;4.93;;;2.42;;
51828;SDS011;37881;48.024;8.774;2023-04-25T14:07:51;4.60;;;2.90;;
51828;SDS011;37881;48.024;8.774;2023-04-25T14:10:38;6.60;;;3.90;;
51828;SDS011;37881;48.024;8.774;2023-04-25T14:13:25;4.63;;;2.63;;
51828;SDS011;37881;48.024;8.774;2023-04-25T14:16:12;4.00;;;2.65;;
51828;SDS011;37881;48.024;8.774;2023-04-25T14:18:59;4.68;;;2.67;;
51828;SDS011;37881;48.024;8.774;2023-04-25T14:21:46;4.33;;;2.40;;
51828;SDS011;37881;48.024;8.774;2023-04-25T14:24:33;4.07;;;2.58;;
51828;SDS011;37881;48.024;8.774;2023-04-25T14:27:21;4.75;;;2.03;;
51828;SDS011;37881;48.024;8.774;2023-04-25T14:30:08;5.07;;;2.20;;
51828;SDS011;37881;48.024;8.774;2023-04-25T14:33:01;5.40;;;3.03;;
51828;SDS011;37881;48.024;8.774;2023-04-25T14:35:48;4.30;;;2.50;;
51828;SDS011;37881;48.024;8.774;2023-04-25T14:38:35;6.60;;;3.83;;
51828;SDS011;37881;48.024;8.774;2023-04-25T14:41:23;5.28;;;2.00;;
51828;SDS011;37881;48.024;8.774;2023-04-25T14:44:10;5.00;;;2.10;;
51828;SDS011;37881;48.024;8.774;2023-04-25T14:46:57;4.43;;;2.35;;
51828;SDS011;37881;48.024;8.774;2023-04-25T14:49:44;5.90;;;2.17;;
51828;SDS011;37881;48.024;8.774;2023-04-25T14:52:37;3.95;;;2.03;;
51828;SDS011;37881;48.024;8.774;2023-04-25T14:55:24;3.03;;;1.90;;
51828;SDS011;37881;48.024;8.774;2023-04-25T14:58:11;3.53;;;1.88;;
51828;SDS011;37881;48.024;8.774;2023-04-25T15:00:59;4.60;;;2.30;;
51828;SDS011;37881;48.024;8.774;2023-04-25T15:03:46;3.33;;;2.00;;
51828;SDS011;37881;48.024;8.774;2023-04-25T15:06:35;2.70;;;1.60;;
51828;SDS011;37881;48.024;8.774;2023-04-25T15:09:22;3.92;;;2.00;;
51828;SDS011;37881;48.024;8.774;2023-04-25T15:12:10;2.75;;;1.70;;
51828;SDS011;37881;48.024;8.774;2023-04-25T15:14:58;3.60;;;1.30;;
51828;SDS011;37881;48.024;8.774;2023-04-25T15:17:45;2.93;;;1.33;;
51828;SDS011;37881;48.024;8.774;2023-04-25T15:20:32;4.13;;;1.10;;
51828;SDS011;37881;48.024;8.774;2023-04-25T15:23:19;2.20;;;1.10;;
51828;SDS011;37881;48.024;8.774;2023-04-25T15:26:06;2.80;;;1.40;;
51828;SDS011;37881;48.024;8.774;2023-04-25T15:28:54;2.70;;;0.80;;
51828;SDS011;37881;48.024;8.774;2023-04-25T15:31:41;2.57;;;1.13;;
51828;SDS011;37881;48.024;8.774;2023-04-25T15:34:28;3.15;;;1.58;;
51828;SDS011;37881;48.024;8.774;2023-04-25T15:37:15;4.00;;;1.60;;
51828;SDS011;37881;48.024;8.774;2023-04-25T15:40:06;2.63;;;1.50;;
51828;SDS011;37881;48.024;8.774;2023-04-25T15:42:55;2.88;;;1.60;;
51828;SDS011;37881;48.024;8.774;2023-04-25T15:45:42;2.73;;;1.40;;
51828;SDS011;37881;48.024;8.774;2023-04-25T15:48:29;3.72;;;2.20;;
51828;SDS011;37881;48.024;8.774;2023-04-25T15:51:17;3.30;;;1.60;;
51828;SDS011;37881;48.024;8.774;2023-04-25T15:54:04;4.10;;;2.05;;
51828;SDS011;37881;48.024;8.774;2023-04-25T15:56:51;2.80;;;1.80;;
51828;SDS011;37881;48.024;8.774;2023-04-25T15:59:38;4.27;;;2.70;;
51828;SDS011;37881;48.024;8.774;2023-04-25T16:02:25;3.80;;;2.40;;
51828;SDS011;37881;48.024;8.774;2023-04-25T16:05:12;6.25;;;3.28;;
51828;SDS011;37881;48.024;8.774;2023-04-25T16:08:01;4.70;;;2.40;;
51828;SDS011;37881;48.024;8.774;2023-04-25T16:10:50;4.13;;;2.47;;
51828;SDS011;37881;48.024;8.774;2023-04-25T16:13:37;4.93;;;2.60;;
51828;SDS011;37881;48.024;8.774;2023-04-25T16:16:24;5.28;;;2.85;;
51828;SDS011;37881;48.024;8.774;2023-04-25T16:19:11;4.10;;;2.60;;
51828;SDS011;37881;48.024;8.774;2023-04-25T16:21:58;4.10;;;2.75;;
51828;SDS011;37881;48.024;8.774;2023-04-25T16:24:46;4.97;;;3.28;;
51828;SDS011;37881;48.024;8.774;2023-04-25T16:27:33;5.30;;;3.20;;
51828;SDS011;37881;48.024;8.774;2023-04-25T16:30:20;4.10;;;1.92;;
51828;SDS011;37881;48.024;8.774;2023-04-25T16:33:07;4.22;;;2.15;;
51828;SDS011;37881;48.024;8.774;2023-04-25T16:35:54;3.35;;;1.90;;
51828;SDS011;37881;48.024;8.774;2023-04-25T16:38:41;3.60;;;1.95;;
51828;SDS011;37881;48.024;8.774;2023-04-25T16:41:28;3.80;;;2.07;;
51828;SDS011;37881;48.024;8.774;2023-04-25T16:44:15;4.00;;;2.17;;
51828;SDS011;37881;48.024;8.774;2023-04-25T16:47:02;5.50;;;2.28;;
51828;SDS011;37881;48.024;8.774;2023-04-25T16:49:51;4.13;;;2.90;;
51828;SDS011;37881;48.024;8.774;2023-04-25T16:52:38;4.53;;;2.72;;
51828;SDS011;37881;48.024;8.774;2023-04-25T16:55:27;4.90;;;2.60;;